Time;durP1;ratioP1;P1;durP2;ratioP2;P2;SDS_P1;SDS_P2;PMS_P1;PMS_P2;Temp;Humidity;BMP_temperature;BMP_pressure;BME280_temperature;BME280_humidity;BME280_pressure;Samples;Min_cycle;Max_cycle;Signal;HPM_P1;HPM_P2
2021/06/02 00:00:51;;;;;;;7.32;4.15;;;;;;;16.70;51.90;101374.66;6399000;23;20012;-65
2021/06/02 00:03:30;;;;;;;7.28;3.85;;;;;;;16.67;51.58;101361.78;6399167;23;20217;-66
2021/06/02 00:06:03;;;;;;;7.90;4.22;;;;;;;16.39;52.55;101374.31;6398454;22;20013;-65
2021/06/02 00:08:35;;;;;;;9.65;4.28;;;;;;;16.39;52.28;101361.09;6501268;22;20002;-67
2021/06/02 00:11:06;;;;;;;7.88;4.60;;;;;;;16.32;52.98;101364.53;6399401;22;20353;-67
2021/06/02 00:13:38;;;;;;;6.20;4.10;;;;;;;16.24;52.86;101360.84;6398998;22;20326;-65
2021/06/02 00:16:09;;;;;;;6.53;3.92;;;;;;;16.28;53.11;101362.19;6398923;22;20013;-66
2021/06/02 00:18:41;;;;;;;5.78;4.28;;;;;;;16.29;53.37;101365.69;6398722;22;20360;-66
2021/06/02 00:21:13;;;;;;;6.78;4.40;;;;;;;16.21;53.64;101363.81;6399160;23;20002;-66
2021/06/02 00:23:44;;;;;;;5.75;4.45;;;;;;;16.07;53.39;101367.00;6398503;22;20001;-67
2021/06/02 00:26:16;;;;;;;7.32;4.40;;;;;;;16.08;53.56;101355.44;6398372;23;20029;-66
2021/06/02 00:28:48;;;;;;;7.80;4.13;;;;;;;15.96;53.93;101360.13;6399439;22;20005;-66
2021/06/02 00:31:20;;;;;;;5.80;4.00;;;;;;;15.93;55.03;101360.44;6398873;22;20020;-67
2021/06/02 00:33:54;;;;;;;7.88;4.47;;;;;;;15.82;55.03;101360.66;6398603;22;20006;-66
2021/06/02 00:36:26;;;;;;;7.65;4.20;;;;;;;15.68;55.09;101354.13;6398066;22;20433;-66
2021/06/02 00:38:58;;;;;;;5.65;4.38;;;;;;;15.70;55.58;101353.97;6398617;22;20031;-66
2021/06/02 00:41:30;;;;;;;7.95;4.82;;;;;;;15.57;56.38;101359.59;6398459;23;20002;-66
2021/06/02 00:44:05;;;;;;;4.85;4.28;;;;;;;15.51;56.94;101350.44;6398289;23;20016;-65
2021/06/02 00:46:38;;;;;;;7.32;4.25;;;;;;;15.41;57.26;101352.31;6398866;23;20016;-66
2021/06/02 00:49:16;;;;;;;6.30;4.57;;;;;;;15.42;56.33;101346.06;6398780;22;20009;-65
2021/06/02 00:51:49;;;;;;;6.15;4.38;;;;;;;15.37;58.13;101350.13;6398716;23;20337;-67
2021/06/02 00:54:22;;;;;;;6.95;4.40;;;;;;;15.26;57.74;101351.97;6399160;22;20009;-66
2021/06/02 00:56:58;;;;;;;6.72;4.57;;;;;;;15.23;57.87;101352.31;6398780;22;20024;-65
2021/06/02 00:59:36;;;;;;;7.05;4.75;;;;;;;15.20;57.67;101352.59;6399026;22;20005;-67
2021/06/02 01:02:15;;;;;;;7.00;4.97;;;;;;;15.30;57.03;101352.53;6399479;22;20013;-66
2021/06/02 01:04:49;;;;;;;8.50;5.00;;;;;;;15.15;58.22;101344.25;6397896;23;20009;-66
2021/06/02 01:07:22;;;;;;;5.50;4.93;;;;;;;15.11;58.19;101352.63;6397496;22;20578;-66
2021/06/02 01:09:58;;;;;;;7.38;5.20;;;;;;;15.08;58.61;101345.88;6398803;23;20062;-66
2021/06/02 01:12:30;;;;;;;7.18;5.35;;;;;;;15.05;58.20;101344.34;6399345;22;20009;-66
2021/06/02 01:15:01;;;;;;;6.50;5.80;;;;;;;15.06;58.60;101342.53;6396989;23;20460;-66
2021/06/02 01:17:33;;;;;;;7.00;5.30;;;;;;;15.00;58.45;101335.19;6398903;23;20009;-66
2021/06/02 01:20:05;;;;;;;7.00;5.72;;;;;;;14.95;57.75;101348.81;6398537;22;20024;-66
2021/06/02 01:22:39;;;;;;;8.33;6.27;;;;;;;14.83;59.59;101342.91;6399103;22;20051;-66
2021/06/02 01:25:12;;;;;;;7.20;6.00;;;;;;;14.79;59.44;101344.19;6500260;22;20010;-66
2021/06/02 01:27:45;;;;;;;7.30;5.68;;;;;;;14.86;58.80;101333.06;6398486;22;20001;-66
2021/06/02 01:30:20;;;;;;;7.30;5.78;;;;;;;14.72;59.80;101332.53;6398994;22;20013;-65
2021/06/02 01:33:10;;;;;;;7.63;5.57;;;;;;;14.84;57.96;101331.38;6398823;23;20322;-66
2021/06/02 01:35:53;;;;;;;7.57;5.95;;;;;;;14.72;58.97;101335.19;6397975;22;20473;-65
2021/06/02 01:38:30;;;;;;;9.00;6.00;;;;;;;14.73;58.92;101334.19;6399151;22;20012;-64
2021/06/02 01:41:27;;;;;;;7.65;5.90;;;;;;;14.80;58.25;101331.81;6398174;23;20001;-65
2021/06/02 01:44:24;;;;;;;8.63;5.45;;;;;;;14.74;59.02;101333.25;6500736;22;20016;-65
2021/06/02 01:47:16;;;;;;;7.13;5.68;;;;;;;14.73;58.62;101331.56;6399193;23;20012;-65
2021/06/02 01:50:14;;;;;;;8.30;6.23;;;;;;;14.66;59.95;101332.28;6397410;23;20098;-64
2021/06/02 01:53:13;;;;;;;9.40;6.03;;;;;;;14.72;58.09;101342.25;6398579;22;20251;-66
2021/06/02 01:56:25;;;;;;;7.78;6.07;;;;;;;14.58;59.51;101330.38;6398125;22;20013;-65
2021/06/02 01:59:09;;;;;;;10.68;5.78;;;;;;;14.56;60.00;101333.16;6398515;22;20033;-66
2021/06/02 02:01:58;;;;;;;6.85;5.72;;;;;;;14.45;60.29;101332.47;6398046;23;20006;-66
2021/06/02 02:04:57;;;;;;;7.95;5.55;;;;;;;14.48;60.04;101326.94;6397567;22;20010;-65
2021/06/02 02:07:34;;;;;;;7.45;5.90;;;;;;;14.40;60.63;101327.66;6395835;23;20112;-65
2021/06/02 02:10:45;;;;;;;8.80;5.78;;;;;;;14.47;59.27;101327.88;6398289;23;20013;-65
2021/06/02 02:13:24;;;;;;;8.45;6.15;;;;;;;14.27;60.94;101329.75;6395793;22;20499;-65
2021/06/02 02:16:12;;;;;;;9.13;6.13;;;;;;;14.23;61.54;101334.47;6397233;22;20009;-65
2021/06/02 02:18:57;;;;;;;8.43;6.00;;;;;;;14.18;61.28;101327.97;6397093;22;20345;-65
2021/06/02 02:21:53;;;;;;;8.80;6.70;;;;;;;14.26;61.07;101330.72;6397616;22;20004;-65
2021/06/02 02:24:30;;;;;;;7.32;6.15;;;;;;;14.18;61.46;101333.25;6397799;23;20016;-65
2021/06/02 02:27:39;;;;;;;9.85;6.75;;;;;;;14.24;60.75;101336.13;6398231;22;20392;-65
2021/06/02 02:30:37;;;;;;;9.23;6.78;;;;;;;14.24;60.87;101337.91;6397887;23;20100;-64
2021/06/02 02:33:21;;;;;;;8.45;7.38;;;;;;;14.01;61.36;101334.78;6397436;22;20009;-65
2021/06/02 02:36:11;;;;;;;7.65;6.85;;;;;;;14.16;61.30;101335.16;6500544;22;20463;-67
2021/06/02 02:39:10;;;;;;;10.40;7.70;;;;;;;14.16;61.27;101338.63;6499837;22;20006;-65
2021/06/02 02:41:48;;;;;;;11.38;7.45;;;;;;;14.05;62.63;101333.50;6398352;22;20081;-65
2021/06/02 02:44:46;;;;;;;11.32;6.88;;;;;;;14.08;61.47;101334.06;6398139;22;20005;-65
2021/06/02 02:47:29;;;;;;;9.95;6.95;;;;;;;14.02;63.10;101334.66;6398005;22;20072;-65
2021/06/02 02:50:22;;;;;;;8.13;6.63;;;;;;;14.06;62.79;101332.56;6398760;22;20002;-65
2021/06/02 02:53:14;;;;;;;8.93;6.80;;;;;;;14.10;62.76;101339.22;6398130;22;20436;-65
2021/06/02 02:55:50;;;;;;;9.20;6.75;;;;;;;13.98;63.29;101340.31;6398194;22;20383;-65
2021/06/02 02:58:56;;;;;;;9.63;7.05;;;;;;;14.06;62.65;101343.94;6398295;22;20009;-67
2021/06/02 03:01:38;;;;;;;8.35;7.15;;;;;;;13.97;63.13;101341.28;6397414;23;20029;-65
2021/06/02 03:04:37;;;;;;;8.85;7.90;;;;;;;13.94;63.92;101342.44;6397128;22;20006;-65
2021/06/02 03:07:10;;;;;;;7.50;6.30;;;;;;;13.96;63.50;101334.38;6397993;23;20016;-66
2021/06/02 03:09:45;;;;;;;;;;;;;;;14.19;61.10;101338.34;6398753;22;20100;-65
2021/06/02 03:12:48;;;;;;;7.63;6.70;;;;;;;14.02;62.70;101349.63;6397845;22;20372;-65
2021/06/02 03:15:40;;;;;;;9.60;7.07;;;;;;;13.90;63.34;101351.56;6398233;23;20031;-65
2021/06/02 03:18:27;;;;;;;7.75;6.55;;;;;;;13.88;63.56;101348.25;6398204;22;20344;-65
2021/06/02 03:21:14;;;;;;;11.10;7.40;;;;;;;13.91;63.64;101353.22;6397909;23;20002;-66
2021/06/02 03:24:02;;;;;;;10.68;6.95;;;;;;;13.87;64.19;101346.59;6397979;23;20071;-65
2021/06/02 03:26:37;;;;;;;9.30;7.05;;;;;;;13.77;65.24;101343.13;6397656;22;20314;-66
2021/06/02 03:29:14;;;;;;;10.68;7.65;;;;;;;13.75;65.15;101343.25;6397698;22;20002;-65
2021/06/02 03:32:12;;;;;;;12.52;7.28;;;;;;;13.84;64.46;101352.94;6397625;23;20421;-66
2021/06/02 03:35:34;;;;;;;10.00;6.97;;;;;;;13.83;64.32;101353.94;6397423;22;20005;-65
2021/06/02 03:38:36;;;;;;;8.30;7.00;;;;;;;13.85;64.77;101357.25;6415140;22;20433;-66
2021/06/02 03:41:35;;;;;;;9.43;7.20;;;;;;;13.75;65.12;101353.78;6398544;22;20380;-65
2021/06/02 03:44:23;;;;;;;9.98;8.07;;;;;;;13.72;65.65;101347.97;6397524;22;20013;-65
2021/06/02 03:47:00;;;;;;;9.77;7.50;;;;;;;13.71;65.71;101347.13;6397193;22;20001;-66
2021/06/02 03:49:44;;;;;;;13.13;7.25;;;;;;;13.70;65.30;101350.72;6397239;23;20039;-66
2021/06/02 03:52:36;;;;;;;10.27;7.65;;;;;;;13.70;66.27;101355.16;6397948;22;20504;-65
2021/06/02 03:55:21;;;;;;;9.98;8.07;;;;;;;13.66;65.97;101346.72;6397664;23;20014;-65
2021/06/02 03:58:00;;;;;;;11.35;7.70;;;;;;;13.66;66.23;101349.34;6398094;22;20006;-65
2021/06/02 04:00:54;;;;;;;8.82;7.75;;;;;;;13.71;66.29;101341.84;6392547;22;20005;-65
2021/06/02 04:03:40;;;;;;;8.00;7.20;;;;;;;13.66;66.02;101344.06;6397284;23;20380;-65
2021/06/02 04:06:43;;;;;;;8.98;8.05;;;;;;;13.73;65.36;101344.38;6395692;22;20409;-64
2021/06/02 04:09:29;;;;;;;9.35;8.00;;;;;;;13.68;65.64;101341.31;6396719;22;20328;-65
2021/06/02 04:12:25;;;;;;;10.98;8.38;;;;;;;13.73;65.95;101349.63;6396087;23;20040;-64
2021/06/02 04:14:58;;;;;;;10.85;8.27;;;;;;;13.58;66.95;101344.75;6500410;22;20009;-65
2021/06/02 04:17:32;;;;;;;12.35;8.25;;;;;;;13.61;67.23;101351.56;6500628;22;20006;-66
2021/06/02 04:20:06;;;;;;;12.20;8.68;;;;;;;13.66;67.00;101338.81;6396125;23;20016;-65
2021/06/02 04:22:41;;;;;;;12.25;8.18;;;;;;;13.64;67.29;101338.13;6397186;22;20363;-65
2021/06/02 04:25:17;;;;;;;9.80;8.73;;;;;;;13.67;66.71;101340.47;6396658;23;20010;-65
2021/06/02 04:27:49;;;;;;;9.60;7.68;;;;;;;13.63;67.56;101337.28;6398646;22;20009;-65
2021/06/02 04:30:25;;;;;;;9.40;8.15;;;;;;;13.75;67.53;101340.63;6398011;23;20018;-65
2021/06/02 04:33:00;;;;;;;10.07;7.10;;;;;;;13.79;66.71;101342.00;6396466;22;20005;-65
2021/06/02 04:35:31;;;;;;;9.32;7.70;;;;;;;13.83;66.91;101339.94;6398626;23;20008;-65
2021/06/02 04:38:03;;;;;;;11.88;8.13;;;;;;;13.88;66.37;101340.34;6399724;22;20337;-65
2021/06/02 04:40:39;;;;;;;12.65;8.57;;;;;;;13.90;66.85;101340.19;6398187;22;20013;-65
2021/06/02 04:43:11;;;;;;;10.15;7.47;;;;;;;13.99;66.71;101334.94;6397610;22;20051;-65
2021/06/02 04:45:54;;;;;;;8.75;7.72;;;;;;;14.08;66.60;101341.16;6398233;22;20001;-65
2021/06/02 04:48:26;;;;;;;10.70;7.57;;;;;;;14.09;66.67;101338.38;6398568;22;20111;-65
2021/06/02 04:51:29;;;;;;;11.27;8.20;;;;;;;14.20;66.39;101347.09;6397788;22;20020;-66
2021/06/02 04:54:14;;;;;;;10.25;7.88;;;;;;;14.29;66.47;101346.25;6397561;22;20009;-65
2021/06/02 04:56:48;;;;;;;10.75;7.72;;;;;;;14.30;66.49;101332.09;6396618;22;20010;-65
2021/06/02 04:59:51;;;;;;;11.43;8.40;;;;;;;14.41;65.89;101336.38;6396732;23;20426;-65
2021/06/02 05:03:04;;;;;;;9.43;7.40;;;;;;;14.53;65.95;101343.16;6501775;22;20005;-66
2021/06/02 05:06:07;;;;;;;10.83;7.50;;;;;;;14.57;65.09;101341.91;6406315;22;20012;-65
2021/06/02 05:09:16;;;;;;;9.48;7.72;;;;;;;14.65;65.02;101341.19;6398960;22;20006;-64
2021/06/02 05:11:56;;;;;;;8.85;7.47;;;;;;;14.64;65.86;101348.25;6398285;22;20492;-65
2021/06/02 05:15:21;;;;;;;10.80;8.02;;;;;;;14.86;64.21;101348.88;6398573;23;20002;-66
2021/06/02 05:18:10;;;;;;;11.85;8.18;;;;;;;14.96;64.81;101345.19;6430932;23;20087;-66
2021/06/02 05:23:59;;;;;;;12.13;8.05;;;;;;;15.21;63.48;101340.22;6398848;22;20040;-65
2021/06/02 05:27:16;;;;;;;12.43;7.72;;;;;;;15.33;63.16;101342.50;6398319;23;20002;-65
2021/06/02 05:30:23;;;;;;;13.02;8.57;;;;;;;15.44;63.50;101344.09;6397692;22;20025;-66
2021/06/02 05:33:10;;;;;;;12.43;8.30;;;;;;;15.62;62.33;101343.28;6397544;23;20020;-67
2021/06/02 05:36:14;;;;;;;10.70;7.38;;;;;;;15.71;61.69;101330.03;6500588;22;20072;-66
2021/06/02 05:39:04;;;;;;;19.60;8.65;;;;;;;15.89;60.45;101337.94;6396534;22;20006;-66
2021/06/02 05:41:53;;;;;;;12.23;7.97;;;;;;;16.07;59.11;101327.34;6397751;22;20076;-66
2021/06/02 05:44:53;;;;;;;13.35;7.28;;;;;;;16.34;58.16;101333.47;6398382;22;20009;-65
2021/06/02 05:48:00;;;;;;;10.60;7.68;;;;;;;16.46;58.45;101337.50;6397348;22;20014;-66
2021/06/02 05:51:09;;;;;;;9.98;7.40;;;;;;;16.61;57.08;101338.59;6397255;23;20001;-67
2021/06/02 05:54:03;;;;;;;10.80;7.35;;;;;;;16.65;56.64;101328.53;6500937;22;20437;-66
2021/06/02 05:57:05;;;;;;;8.43;6.88;;;;;;;16.89;56.68;101335.75;6399088;23;20025;-67
2021/06/02 06:00:08;;;;;;;9.02;6.95;;;;;;;17.01;56.42;101331.84;6394264;22;20553;-66
2021/06/02 06:02:58;;;;;;;;;;;;;;;17.17;56.51;101337.19;6399424;22;20009;-66
2021/06/02 06:05:51;;;;;;;8.32;6.55;;;;;;;17.30;55.84;101333.25;6393195;22;19904;-67
2021/06/02 06:08:50;;;;;;;12.50;6.82;;;;;;;17.44;56.10;101333.44;6396628;22;20005;-67
2021/06/02 06:11:59;;;;;;;10.70;7.00;;;;;;;17.54;55.54;101332.47;6398728;23;20105;-67
2021/06/02 06:14:30;;;;;;;11.32;6.93;;;;;;;17.75;53.73;101338.16;6398398;23;20020;-67
2021/06/02 06:17:13;;;;;;;10.13;6.50;;;;;;;17.88;54.30;101335.84;6395238;23;20317;-67
2021/06/02 06:19:56;;;;;;;;;;;;;;;18.00;54.90;101336.34;6399028;23;20265;-67
2021/06/02 06:22:34;;;;;;;8.67;6.33;;;;;;;18.11;52.51;101325.38;6397641;23;19912;-67
2021/06/02 06:25:13;;;;;;;11.57;6.45;;;;;;;18.41;52.96;101336.25;6393722;22;20244;-68
2021/06/02 06:27:52;;;;;;;12.65;6.22;;;;;;;18.47;51.67;101333.75;6495133;22;20009;-68
2021/06/02 06:30:29;;;;;;;9.20;6.50;;;;;;;18.56;52.23;101333.72;6397824;22;20624;-68
2021/06/02 06:33:09;;;;;;;8.68;6.05;;;;;;;18.73;52.61;101324.75;6399764;22;20008;-68
2021/06/02 06:35:43;;;;;;;7.65;5.80;;;;;;;18.82;48.83;101334.34;6398635;22;20005;-68
2021/06/02 06:38:24;;;;;;;7.30;5.70;;;;;;;19.05;50.17;101334.41;6398720;22;20006;-68
2021/06/02 06:40:56;;;;;;;8.60;6.00;;;;;;;19.11;49.44;101331.06;6399207;22;20610;-68
2021/06/02 06:43:31;;;;;;;11.13;6.00;;;;;;;19.26;49.52;101330.31;6399359;22;20009;-68
2021/06/02 06:46:03;;;;;;;10.63;5.63;;;;;;;19.41;50.06;101320.59;6397432;22;20009;-68
2021/06/02 06:48:36;;;;;;;7.80;6.17;;;;;;;19.53;47.99;101324.50;6501754;22;20009;-68
2021/06/02 06:51:09;;;;;;;8.50;6.13;;;;;;;19.65;46.13;101322.25;6398888;22;20010;-68
2021/06/02 06:53:41;;;;;;;12.02;6.00;;;;;;;19.72;47.63;101323.22;6399376;23;20490;-68
2021/06/02 06:56:15;;;;;;;9.07;5.20;;;;;;;19.82;47.12;101323.81;6398111;22;20005;-68
2021/06/02 06:58:47;;;;;;;7.68;4.78;;;;;;;20.02;47.13;101320.63;6396087;22;20013;-68
2021/06/02 07:01:18;;;;;;;8.30;4.40;;;;;;;20.13;46.58;101326.34;6394009;22;20063;-68
2021/06/02 07:03:50;;;;;;;10.52;4.78;;;;;;;20.31;44.95;101319.88;6396608;23;20005;-68
2021/06/02 07:06:22;;;;;;;11.20;4.63;;;;;;;20.37;46.82;101327.09;6395172;23;20043;-68
2021/06/02 07:08:54;;;;;;;9.45;5.50;;;;;;;20.40;45.24;101324.06;6397383;22;20060;-68
2021/06/02 07:11:26;;;;;;;8.83;5.70;;;;;;;20.57;46.31;101322.94;6397589;23;20043;-68
2021/06/02 07:13:57;;;;;;;9.30;5.50;;;;;;;20.65;47.73;101317.50;6397268;23;20006;-68
2021/06/02 07:16:29;;;;;;;6.73;5.33;;;;;;;20.79;45.99;101320.31;6397276;22;20429;-68
2021/06/02 07:19:01;;;;;;;8.93;5.40;;;;;;;20.97;45.17;101311.94;6398291;22;20100;-68
2021/06/02 07:21:39;;;;;;;13.67;5.37;;;;;;;21.02;45.57;101320.19;6398332;23;20005;-68
2021/06/02 07:24:11;;;;;;;12.93;5.93;;;;;;;21.11;44.19;101314.56;6395465;22;20012;-68
2021/06/02 07:26:42;;;;;;;9.43;5.93;;;;;;;21.21;43.88;101321.44;6398450;22;20002;-68
2021/06/02 07:29:14;;;;;;;10.87;4.67;;;;;;;21.49;43.58;101317.06;6396619;22;20021;-68
2021/06/02 07:31:46;;;;;;;8.70;5.17;;;;;;;21.61;43.32;101326.19;6395415;23;20047;-68
2021/06/02 07:34:19;;;;;;;8.10;4.60;;;;;;;21.69;42.50;101322.56;6391908;22;20084;-68
2021/06/02 07:36:51;;;;;;;8.13;4.88;;;;;;;21.80;42.77;101323.88;6393799;23;20017;-68
2021/06/02 07:39:22;;;;;;;8.57;4.60;;;;;;;21.97;42.41;101322.59;6496759;22;20013;-69
2021/06/02 07:41:53;;;;;;;7.63;5.33;;;;;;;22.09;41.72;101331.72;6395122;23;20001;-69
2021/06/02 07:44:24;;;;;;;7.40;5.00;;;;;;;22.23;41.39;101329.16;6391295;23;20088;-69
2021/06/02 07:46:56;;;;;;;6.93;4.60;;;;;;;22.33;41.55;101332.31;6396066;23;20063;-69
2021/06/02 07:49:27;;;;;;;7.97;4.43;;;;;;;22.36;40.88;101331.94;6396928;23;20005;-69
2021/06/02 07:52:00;;;;;;;9.90;5.40;;;;;;;22.39;40.45;101341.38;6397343;23;20062;-69
2021/06/02 07:54:31;;;;;;;7.32;4.95;;;;;;;22.43;41.55;101326.66;6393747;23;20007;-69
2021/06/02 07:57:03;;;;;;;7.13;5.63;;;;;;;22.54;41.09;101331.41;6395455;23;20002;-68
2021/06/02 07:59:34;;;;;;;9.87;5.67;;;;;;;22.53;40.05;101319.91;6394462;23;20428;-69
2021/06/02 08:02:06;;;;;;;7.80;4.77;;;;;;;22.66;40.45;101323.69;6397133;23;20013;-69
2021/06/02 08:04:38;;;;;;;8.70;4.93;;;;;;;22.76;39.41;101330.28;6397574;22;20033;-68
2021/06/02 08:07:09;;;;;;;6.43;3.90;;;;;;;22.93;39.78;101324.66;6397938;23;20006;-69
2021/06/02 08:09:43;;;;;;;6.90;4.17;;;;;;;23.20;39.14;101326.38;6396782;23;20344;-69
2021/06/02 08:12:14;;;;;;;8.48;4.38;;;;;;;23.38;39.35;101330.34;6396295;23;20021;-69
2021/06/02 08:14:45;;;;;;;6.77;3.93;;;;;;;23.48;38.89;101325.41;6396099;23;20005;-69
2021/06/02 08:17:17;;;;;;;6.97;3.57;;;;;;;23.58;38.34;101325.00;6397901;23;20340;-69
2021/06/02 08:19:48;;;;;;;6.77;3.60;;;;;;;23.76;37.18;101323.41;6399661;22;20013;-69
2021/06/02 08:22:19;;;;;;;8.33;3.87;;;;;;;23.81;37.95;101320.09;6500834;22;20089;-69
2021/06/02 08:24:50;;;;;;;6.37;3.83;;;;;;;23.76;36.63;101323.41;6399761;23;20013;-69
2021/06/02 08:27:22;;;;;;;6.10;3.97;;;;;;;24.02;36.20;101319.91;6399769;23;20016;-69
2021/06/02 08:29:54;;;;;;;6.13;3.60;;;;;;;23.97;36.49;101322.34;6397137;23;20040;-68
2021/06/02 08:32:25;;;;;;;9.43;3.57;;;;;;;24.02;35.49;101313.72;6399517;23;20013;-69
2021/06/02 08:34:57;;;;;;;8.30;3.13;;;;;;;24.26;35.33;101323.78;6397256;22;20237;-69
2021/06/02 08:37:28;;;;;;;6.27;3.47;;;;;;;24.42;35.07;101330.56;6399474;22;20088;-69
2021/06/02 08:39:59;;;;;;;6.57;3.47;;;;;;;24.54;34.90;101322.69;6398885;23;20416;-69
2021/06/02 08:42:32;;;;;;;6.53;2.80;;;;;;;24.68;34.10;101328.84;6398434;22;20002;-70
2021/06/02 08:45:04;;;;;;;3.47;2.65;;;;;;;24.82;32.81;101327.78;6394844;22;20017;-70
2021/06/02 08:47:35;;;;;;;4.40;2.90;;;;;;;25.15;33.65;101324.13;6399642;22;20005;-70
2021/06/02 08:50:08;;;;;;;5.20;3.30;;;;;;;25.07;32.08;101321.66;6399371;22;20012;-70
2021/06/02 08:52:41;;;;;;;6.13;3.47;;;;;;;25.04;32.14;101328.28;6399400;22;20005;-70
2021/06/02 08:55:16;;;;;;;6.82;2.95;;;;;;;25.28;31.00;101329.41;6398921;22;20063;-68
2021/06/02 08:57:50;;;;;;;4.38;3.55;;;;;;;25.16;32.02;101328.47;6494702;22;20021;-68
2021/06/02 09:00:23;;;;;;;7.00;3.50;;;;;;;25.26;31.45;101326.13;6395895;22;20080;-68
2021/06/02 09:02:55;;;;;;;6.28;3.67;;;;;;;25.21;30.77;101323.28;6397118;23;20010;-68
2021/06/02 09:05:27;;;;;;;7.25;3.22;;;;;;;25.35;33.56;101324.84;6397646;23;20449;-68
2021/06/02 09:07:58;;;;;;;7.97;3.17;;;;;;;25.40;30.97;101329.56;6398391;22;20010;-68
2021/06/02 09:10:40;;;;;;;5.63;3.43;;;;;;;25.54;31.70;101327.59;6398482;22;20005;-68
2021/06/02 09:13:23;;;;;;;5.07;3.10;;;;;;;25.68;31.97;101331.81;6397658;22;20516;-68
2021/06/02 09:15:54;;;;;;;;;;;;;;;25.99;32.44;101330.16;6395905;23;20010;-68
2021/06/02 09:18:25;;;;;;;4.33;3.00;;;;;;;25.94;31.68;101326.25;6398124;23;19991;-68
2021/06/02 09:20:57;;;;;;;4.73;3.37;;;;;;;25.88;29.75;101329.84;6398255;22;20358;-68
2021/06/02 09:23:37;;;;;;;5.33;2.50;;;;;;;26.06;30.17;101318.28;6396832;22;20009;-70
2021/06/02 09:26:27;;;;;;;3.97;2.70;;;;;;;26.22;31.92;101330.34;6397760;22;20039;-68
2021/06/02 09:29:08;;;;;;;3.83;2.42;;;;;;;26.53;28.42;101320.56;6398287;22;20037;-69
2021/06/02 09:31:47;;;;;;;4.45;2.75;;;;;;;26.37;28.45;101308.50;6396846;23;20017;-68
2021/06/02 09:34:24;;;;;;;3.10;2.38;;;;;;;26.56;28.35;101312.06;6396736;22;20339;-68
2021/06/02 09:37:06;;;;;;;2.75;2.22;;;;;;;26.48;27.54;101320.38;6398151;22;20076;-68
2021/06/02 09:39:40;;;;;;;4.13;2.50;;;;;;;26.53;27.31;101326.75;6397067;23;20005;-69
2021/06/02 09:42:23;;;;;;;5.65;2.42;;;;;;;26.61;27.50;101306.81;6397515;22;20008;-69
2021/06/02 09:45:14;;;;;;;4.20;2.90;;;;;;;26.52;28.26;101302.75;6497151;22;20005;-68
2021/06/02 09:47:47;;;;;;;4.32;2.47;;;;;;;26.55;27.30;101308.50;6397644;23;20017;-68
2021/06/02 09:50:31;;;;;;;6.10;2.70;;;;;;;26.71;27.68;101309.78;6397050;23;20028;-68
2021/06/02 09:53:05;;;;;;;4.85;2.30;;;;;;;26.79;28.62;101306.78;6396667;22;20009;-68
2021/06/02 09:55:39;;;;;;;3.95;1.90;;;;;;;27.04;27.90;101305.84;6396624;22;20425;-68
2021/06/02 09:58:12;;;;;;;6.38;2.45;;;;;;;26.93;27.08;101302.88;6396459;23;20006;-68
2021/06/02 10:00:59;;;;;;;5.55;2.50;;;;;;;27.09;26.44;101303.28;6395666;23;20012;-68
2021/06/02 10:03:33;;;;;;;4.30;2.20;;;;;;;27.26;26.35;101307.00;6397926;22;20453;-68
2021/06/02 10:06:14;;;;;;;5.05;2.03;;;;;;;27.49;26.04;101302.72;6397150;23;20013;-68
2021/06/02 10:08:55;;;;;;;4.00;2.33;;;;;;;27.36;25.54;101306.44;6395836;23;20055;-68
2021/06/02 10:11:30;;;;;;;4.85;2.15;;;;;;;27.38;25.58;101305.16;6397436;23;20093;-68
2021/06/02 10:14:01;;;;;;;2.83;2.00;;;;;;;27.59;25.51;101293.03;6396346;22;20013;-68
2021/06/02 10:16:40;;;;;;;2.90;2.13;;;;;;;27.41;24.37;101302.00;6498123;22;20006;-68
2021/06/02 10:19:12;;;;;;;2.60;2.03;;;;;;;27.62;23.69;101299.81;6397455;22;20016;-70
2021/06/02 10:21:45;;;;;;;4.10;1.98;;;;;;;27.55;24.80;101289.16;6397370;22;20527;-70
2021/06/02 10:24:17;;;;;;;2.97;2.08;;;;;;;27.60;25.66;101286.59;6397742;22;20005;-70
2021/06/02 10:26:49;;;;;;;3.70;1.97;;;;;;;27.73;24.68;101303.56;6397749;22;20066;-69
2021/06/02 10:29:21;;;;;;;3.75;2.42;;;;;;;27.68;24.88;101301.56;6396454;22;20018;-70
2021/06/02 10:31:52;;;;;;;3.65;2.00;;;;;;;27.86;24.61;101295.31;6396797;22;20146;-69
2021/06/02 10:34:23;;;;;;;3.13;2.00;;;;;;;27.91;23.44;101287.34;6397902;23;20001;-69
2021/06/02 10:36:55;;;;;;;7.20;2.00;;;;;;;28.09;25.96;101297.16;6396725;23;20005;-68
2021/06/02 10:39:30;;;;;;;5.20;2.15;;;;;;;28.02;24.76;101304.53;6395725;22;20338;-68
2021/06/02 10:42:07;;;;;;;2.55;1.77;;;;;;;27.81;23.63;101301.41;6397149;22;20005;-68
2021/06/02 10:44:45;;;;;;;6.13;1.90;;;;;;;27.95;24.13;101291.19;6395408;22;20016;-68
2021/06/02 10:47:25;;;;;;;2.45;1.80;;;;;;;28.17;25.04;101287.91;6397091;22;20059;-69
2021/06/02 10:49:56;;;;;;;3.83;2.30;;;;;;;28.01;25.32;101290.25;6397187;22;20708;-69
2021/06/02 10:52:36;;;;;;;3.43;2.10;;;;;;;28.06;24.17;101287.66;6396849;22;20009;-69
2021/06/02 10:55:35;;;;;;;2.80;1.90;;;;;;;27.97;24.75;101289.09;6398316;23;20009;-68
2021/06/02 10:58:21;;;;;;;2.97;1.83;;;;;;;28.08;24.69;101284.75;6397319;23;20001;-68
2021/06/02 11:01:05;;;;;;;4.32;1.75;;;;;;;28.04;25.59;101278.22;6395661;23;20006;-68
2021/06/02 11:03:39;;;;;;;4.97;1.95;;;;;;;28.11;24.23;101278.91;6397219;23;20012;-68
2021/06/02 11:06:13;;;;;;;3.17;1.80;;;;;;;28.45;24.58;101276.38;6397367;22;20329;-68
2021/06/02 11:08:50;;;;;;;6.53;1.77;;;;;;;28.69;23.71;101279.84;6395499;23;20006;-68
2021/06/02 11:11:38;;;;;;;3.75;1.83;;;;;;;28.83;23.45;101286.59;6396953;23;20006;-68
2021/06/02 11:16:56;;;;;;;6.28;1.83;;;;;;;28.83;23.24;101279.31;6396063;23;20735;-68
2021/06/02 11:19:36;;;;;;;2.97;1.98;;;;;;;28.63;22.26;101286.19;6498317;22;20009;-68
2021/06/02 11:22:13;;;;;;;3.35;1.90;;;;;;;28.58;21.21;101276.94;6397964;22;20475;-68
2021/06/02 11:24:45;;;;;;;5.97;2.15;;;;;;;28.69;21.95;101274.47;6396049;23;20005;-68
2021/06/02 11:27:19;;;;;;;3.67;2.05;;;;;;;28.92;22.21;101270.84;6396058;22;20025;-67
2021/06/02 11:29:51;;;;;;;5.45;1.80;;;;;;;29.01;22.55;101272.91;6395187;23;20360;-68
2021/06/02 11:32:23;;;;;;;7.30;2.00;;;;;;;28.84;21.55;101269.34;6397666;23;20089;-66
2021/06/02 11:34:58;;;;;;;3.97;1.85;;;;;;;28.98;21.33;101272.59;6395060;22;20009;-66
2021/06/02 11:37:31;;;;;;;4.50;1.88;;;;;;;28.83;21.48;101270.44;6398312;23;20037;-66
2021/06/02 11:40:06;;;;;;;2.40;1.33;;;;;;;28.97;23.50;101273.63;6396496;23;20013;-66
2021/06/02 11:42:42;;;;;;;3.25;1.92;;;;;;;29.09;21.58;101275.25;6395270;22;20017;-66
2021/06/02 11:45:14;;;;;;;6.47;1.92;;;;;;;29.04;21.84;101279.72;6395130;23;20344;-66
2021/06/02 11:47:48;;;;;;;5.63;2.00;;;;;;;29.10;23.11;101276.06;6397741;22;20388;-66
2021/06/02 11:50:22;;;;;;;3.10;1.88;;;;;;;29.35;22.13;101275.66;6397730;23;20001;-66
2021/06/02 11:52:58;;;;;;;2.45;1.60;;;;;;;29.04;21.11;101271.63;6501580;22;20017;-66
2021/06/02 11:55:31;;;;;;;5.15;2.13;;;;;;;29.08;22.57;101276.28;6397674;22;20048;-66
2021/06/02 11:58:03;;;;;;;3.78;1.50;;;;;;;28.95;21.66;101273.06;6397750;23;20010;-67
2021/06/02 12:00:35;;;;;;;4.33;1.70;;;;;;;28.91;22.21;101261.13;6397535;23;19997;-66
2021/06/02 12:03:10;;;;;;;3.65;1.95;;;;;;;29.18;22.01;101272.97;6398328;22;20062;-67
2021/06/02 12:05:42;;;;;;;2.47;1.80;;;;;;;28.94;21.72;101266.81;6398099;22;20058;-67
2021/06/02 12:08:16;;;;;;;6.43;2.10;;;;;;;28.95;21.95;101268.47;6396220;23;20081;-66
2021/06/02 12:10:52;;;;;;;3.53;1.80;;;;;;;29.08;22.27;101261.97;6395319;23;20119;-66
2021/06/02 12:13:28;;;;;;;2.83;1.70;;;;;;;29.20;22.20;101253.81;6395730;22;20016;-67
2021/06/02 12:16:03;;;;;;;3.00;1.77;;;;;;;29.34;21.77;101257.84;6396120;23;20076;-66
2021/06/02 12:18:46;;;;;;;2.08;1.52;;;;;;;29.80;21.73;101261.28;6395766;22;20255;-67
2021/06/02 12:21:31;;;;;;;7.28;2.13;;;;;;;29.87;21.59;101266.50;6396472;22;20476;-66
2021/06/02 12:24:05;;;;;;;2.25;1.77;;;;;;;29.73;20.28;101266.03;6396906;23;20005;-67
2021/06/02 12:26:43;;;;;;;2.78;1.77;;;;;;;29.67;20.13;101261.63;6397701;22;20005;-67
2021/06/02 12:29:17;;;;;;;4.10;1.50;;;;;;;29.45;18.97;101265.03;6396798;23;20337;-66